Pequea, PA (17565)

5:33 AM EDT on April 25, 2015 (GMT -0400)
Mt. Nebo | | Change Station
CLOSE
Current Station
Personal Weather Station
Location: Holtwood, PA
Elevation: 843 ft
Nearby Weather Stations
Active Advisory: Freeze Warning

Elev 843 ft 39.88 °N, 76.32 °W | Updated 30 seconds ago

Clear
Clear
32.8 °F
Feels Like 33 °F
N
0.0
Wind Variable Wind from NNE
Gusts 0.0 mph

Today
High -- | Low -- °F
--% Chance of Precip.
Yesterday
High -- | Low -- °F
Precip. -- in
6:13 AM 7:53 PM
Waxing Crescent, 44% visible
Pressure 29.96 in
Visibility 10.0 miles
Clouds Clear
Windchill 33 °F
Dew Point 19 °F
Humidity 57%
Rainfall 0.00 in
Snow Depth Not available.
UV 0 out of 12
Pollen 10.70 out of 12
Air Quality Not available.
Flu Activity Sporadic
METAR KLNS 250853Z AUTO 29003KT 10SM CLR 00/M06 A2996 RMK AO2 SLP146 T00001061 50000

More Conditions Fewer Conditions

Pressure 29.96 in
Visibility 10.0 miles
Clouds Clear
Windchill 33 °F
Dew Point 19 °F
Humidity 57%
Rainfall 0.00 in
Snow Depth Not available.
UV 0 out of 12
Pollen 10.70 out of 12
Air Quality Not available.
Flu Activity Sporadic
METAR KLNS 250853Z AUTO 29003KT 10SM CLR 00/M06 A2996 RMK AO2 SLP146 T00001061 50000

More Conditions Fewer Conditions

10-Day Weather Forecast

Almanac

Astronomy

Apr. 25, 2015 Rise Set
Actual Time
Civil Twilight
Nautical Twilight
Astronomical Twilight
Moon
Length of Visible Light
Length of Day
Tomorrow will be .
, % of the Moon is Illuminated

Today's Extremes

State Highs State Lows

Community

WunderPhotos

Upload Photos

1,816,630 photos uploaded!

WunderBlogs® & News

Nearby

Air Quality

  Air Quality AQ Index Pollutant
Not available.

Snow Depth

Station Depth Elevation

Earthquake Activity

City Distance Mag. Time & Date
Minimum magnitude displayed is 2.5.

Coastal Water Temperatures

Place Temperature

Stations

Nearby Weather Stations

Station Location Temp. Windchill Dew Point Humidity Wind Precip. Elev Updated Type
                   
Freeze Warning
Statement as of 3:56 AM EDT on April 25, 2015

... A freeze warning remains in effect until 9 am EDT this
morning...

* minimum temperatures... low temperatures between 28 and 32
degrees early this morning.

* Impacts... possible damage to sensitive crops and vegetation.

Precautionary/preparedness actions...

Those with agricultural or gardening interests should protect
sensitive crops and vegetation. Potted plants normally left
outdoors should be covered or brought inside.



Lambert